Flight Track Log - Related Links

Times and Time Zones

All times are in EDT time to prevent confusion due to time zone crossing. See the ELJ75 flight status page for this flight to view local times or setup timezone preferences in your user account.

Time Position Orientation Groundspeed Altitude Reporting Facility
EDT Latitude Longitude Course Direction KTS MPH feet Rate Location/Type
Fri 06:57:23 AM 40.8167 -74.1333 259° West 195 224 1,600  Level New York TRACON
Fri 06:58:23 AM 40.8167 -74.2000 270° West 217 250 4,200 2,800 Climbing New York TRACON
Fri 06:59:23 AM 40.8167 -74.2833 270° West 249 287 7,200 2,945 Climbing New York TRACON
Fri 07:01:06 AM 40.8150 -74.4397 269° West 260 299 12,200 2,780 Climbing New York Center
Fri 07:02:00 AM 40.7385 -74.6583 259° West  Level FlightAware Approximate
Fri 07:02:07 AM 40.7931 -74.5428 254° West 273 314 14,800  Level New York Center
Fri 07:03:07 AM 40.7733 -74.6375 255° West 285 328 16,700 1,333 Climbing New York Center
Fri 07:04:04 AM 40.7483 -74.7647 255° West 310 357 17,400 1,271 Climbing New York Center
Fri 07:05:05 AM 40.7233 -74.8839 255° West 344 396 19,200 1,820 Climbing New York Center
Fri 07:06:06 AM 40.7006 -74.9975 255° West 339 390 21,100 1,869 Climbing New York Center
Fri 07:07:07 AM 40.6694 -75.1103 250° West 334 384 23,000 1,916 Climbing New York Center
Fri 07:08:05 AM 40.6219 -75.2086 238° Southwest 329 379 24,900 2,000 Climbing New York Center
Fri 07:09:04 AM 40.5764 -75.3122 240° Southwest 329 379 26,900 1,950 Climbing New York Center
Fri 07:10:05 AM 40.5308 -75.4131 239° Southwest 329 379 28,800 1,869 Climbing New York Center
Fri 07:11:06 AM 40.4850 -75.5136 239° Southwest 329 379 30,700 1,934 Climbing New York Center
Fri 07:12:06 AM 40.4394 -75.6114 239° Southwest 329 379 32,700 1,815 Climbing New York Center
Fri 07:13:05 AM 40.3981 -75.7067 240° Southwest 319 367 34,300 1,550 Climbing New York Center
Fri 07:14:06 AM 40.3522 -75.8014 238° Southwest 319 367 35,800 1,488 Climbing New York Center
Fri 07:15:06 AM 40.3064 -75.9014 239° Southwest 314 361 37,300 1,186 Climbing New York Center
Fri 07:16:58 AM 40.2231 -76.0750 238° Southwest 308 354 39,200 907 Climbing Washington Center
Fri 07:17:58 AM 40.1767 -76.1806 240° Southwest 324 373 39,900 397 Climbing Washington Center
Fri 07:18:59 AM 40.1219 -76.2914 237° Southwest 346 398 40,000 50 Climbing Washington Center
Fri 07:19:58 AM 40.0692 -76.4103 240° Southwest 365 420 40,000  Level Washington Center
Fri 07:20:58 AM 40.0100 -76.5286 237° Southwest 386 444 40,000  Level Washington Center
Fri 07:21:57 AM 39.9569 -76.6444 239° Southwest 386 444 40,000  Level Washington Center
Fri 07:22:57 AM 39.8956 -76.7678 237° Southwest 381 438 40,000  Level Washington Center
Fri 07:23:57 AM 39.8444 -76.8778 239° Southwest 381 438 40,000  Level Washington Center
Fri 07:24:57 AM 39.7931 -76.9903 239° Southwest 376 433 40,000  Level Washington Center
Fri 07:25:58 AM 39.7397 -77.1025 238° Southwest 376 433 40,000  Level Washington Center
Fri 07:26:58 AM 39.6861 -77.2147 238° Southwest 376 433 40,000  Level Washington Center
Fri 07:27:57 AM 39.6325 -77.3267 238° Southwest 376 433 40,000 151 Level Washington Center
Fri 07:28:57 AM 39.5828 -77.4358 239° Southwest 376 433 40,300 450 Climbing Washington Center
Fri 07:29:57 AM 39.5333 -77.5397 238° Southwest 363 418 40,900 347 Climbing Washington Center
Fri 07:30:58 AM 39.4858 -77.6406 239° Southwest 347 399 41,000 49 Climbing Washington Center
Fri 07:31:59 AM 39.4361 -77.7467 239° Southwest 342 394 41,000  Level Washington Center
Fri 07:32:58 AM 39.3861 -77.8497 238° Southwest 342 394 41,000  Level Washington Center
Fri 07:33:59 AM 39.3425 -77.9586 243° Southwest 342 394 41,000  Level Washington Center
Fri 07:34:57 AM 39.2986 -78.0697 243° Southwest 342 394 41,000  Level Washington Center
Fri 07:35:57 AM 39.2525 -78.1808 242° Southwest 347 399 41,000  Level Washington Center
Fri 07:36:57 AM 39.2083 -78.2917 243° Southwest 347 399 41,000  Level Washington Center
Fri 07:37:58 AM 39.1642 -78.4025 243° Southwest 357 411 41,000  Level Washington Center
Fri 07:38:59 AM 39.1242 -78.5053 243° Southwest 362 417 41,000  Level Washington Center
Fri 07:39:59 AM 39.0797 -78.6106 241° Southwest 362 417 41,000  Level Washington Center
Fri 07:40:57 AM 39.0397 -78.7158 244° Southwest 349 402 41,000  Level Washington Center
Fri 07:41:58 AM 38.9994 -78.8208 244° Southwest 336 387 41,000  Level Washington Center
Fri 07:42:58 AM 38.9547 -78.9231 241° Southwest 331 381 41,000  Level Washington Center
Fri 07:43:59 AM 38.9144 -79.0278 244° Southwest 331 381 41,000  Level Washington Center
Fri 07:44:57 AM 38.8717 -79.1300 242° Southwest 331 381 41,000  Level Washington Center
Fri 07:45:58 AM 38.8353 -79.2375 247° West 331 381 41,000  Level Washington Center
Fri 07:46:58 AM 38.8150 -79.3483 257° West 326 375 41,000  Level Washington Center
Fri 07:47:59 AM 38.7950 -79.4592 257° West 321 369 41,000  Level Washington Center
Fri 07:48:57 AM 38.7764 -79.5808 259° West 327 376 41,000  Level Washington Center
Fri 07:49:58 AM 38.7539 -79.6939 256° West 334 384 41,000  Level Washington Center
Fri 07:50:58 AM 38.7331 -79.8072 257° West 334 384 41,000  Level Washington Center
Fri 07:51:59 AM 38.7100 -79.9311 257° West 334 384 41,000  Level Washington Center
Fri 07:53:37 AM 38.6761 -80.0953 255° West 328 377 41,000 -75 Level Indianapolis Center
Fri 07:54:38 AM 38.6506 -80.2317 257° West 328 377 40,800 -488 Descending Indianapolis Center
Fri 07:55:40 AM 38.6289 -80.3486 257° West 335 386 40,000 -390 Descending Indianapolis Center
Fri 07:56:41 AM 38.6056 -80.4639 256° West 335 386 40,000  Level Indianapolis Center
Fri 07:57:43 AM 38.5853 -80.5769 257° West 327 376 40,000  Level Indianapolis Center
Fri 07:58:44 AM 38.5639 -80.6903 256° West 328 377 40,000  Level Indianapolis Center
Fri 07:59:46 AM 38.5417 -80.8019 256° West 325 374 40,000 -439 Level Indianapolis Center
Fri 08:00:47 AM 38.5208 -80.9131 257° West 322 371 39,100 -976 Descending Indianapolis Center
Fri 08:01:49 AM 38.4994 -81.0200 256° West 313 360 38,000 -537 Descending Indianapolis Center
Fri 08:02:50 AM 38.4808 -81.1144 256° West 278 320 38,000  Level Indianapolis Center
Fri 08:03:52 AM 38.4617 -81.2108 256° West 278 320 38,000  Level Indianapolis Center
Fri 08:04:53 AM 38.4378 -81.3311 256° West 288 331 38,000  Level Indianapolis Center
Fri 08:05:55 AM 38.4181 -81.4314 256° West 290 334 38,000  Level Indianapolis Center
Fri 08:06:56 AM 38.3975 -81.5331 256° West 294 338 38,000  Level Indianapolis Center
Fri 08:07:58 AM 38.3775 -81.6342 256° West 293 337 38,000  Level Indianapolis Center
Fri 08:09:00 AM 38.3572 -81.7339 255° West 290 334 38,000  Level Indianapolis Center
Fri 08:10:01 AM 38.3322 -81.8336 252° West 293 337 38,000  Level Indianapolis Center
Fri 08:11:03 AM 38.3042 -81.9344 251° West 299 344 38,000  Level Indianapolis Center
Fri 08:12:04 AM 38.2756 -82.0336 250° West 299 344 38,000  Level Indianapolis Center
Fri 08:13:06 AM 38.2483 -82.1342 251° West 300 345 38,000  Level Indianapolis Center
Fri 08:14:07 AM 38.2197 -82.2344 250° West 301 346 38,000  Level Indianapolis Center
Fri 08:15:09 AM 38.1906 -82.3344 250° West 302 348 38,000  Level Indianapolis Center
Fri 08:16:11 AM 38.1561 -82.4564 250° West 304 350 38,000  Level Indianapolis Center
Fri 08:17:12 AM 38.1297 -82.5475 250° West 305 351 38,000  Level Indianapolis Center
Fri 08:18:14 AM 38.1003 -82.6492 250° West 306 352 38,000  Level Indianapolis Center
Fri 08:19:15 AM 38.0661 -82.7653 250° West 303 349 38,000  Level Indianapolis Center
Fri 08:20:17 AM 38.0372 -82.8664 250° West 304 350 38,000  Level Indianapolis Center
Fri 08:21:18 AM 38.0081 -82.9658 250° West 302 348 38,000  Level Indianapolis Center
Fri 08:22:20 AM 37.9797 -83.0653 250° West 301 346 38,000  Level Indianapolis Center
Fri 08:23:21 AM 37.9517 -83.1642 250° West 299 344 38,000  Level Indianapolis Center
Fri 08:24:23 AM 37.9217 -83.2614 249° West 296 341 38,000  Level Indianapolis Center
Fri 08:25:24 AM 37.8922 -83.3614 250° West 300 345 38,000  Level Indianapolis Center
Fri 08:26:26 AM 37.8589 -83.4756 250° West 298 343 38,000  Level Indianapolis Center
Fri 08:27:27 AM 37.8289 -83.5750 249° West 301 346 38,000  Level Indianapolis Center
Fri 08:28:29 AM 37.7997 -83.6717 249° West 296 341 38,000  Level Indianapolis Center
Fri 08:29:30 AM 37.7717 -83.7697 250° West 296 341 38,000  Level Indianapolis Center
Fri 08:30:31 AM 37.7419 -83.8669 249° West 297 342 38,000  Level Indianapolis Center
Fri 08:31:33 AM 37.7125 -83.9625 249° West 294 338 38,000  Level Indianapolis Center
Fri 08:32:34 AM 37.6833 -84.0575 249° West 292 336 38,000  Level Indianapolis Center
Fri 08:33:36 AM 37.6503 -84.1675 249° West 287 330 38,000  Level Indianapolis Center
Fri 08:34:37 AM 37.6214 -84.2619 249° West 287 330 38,000  Level Indianapolis Center
Fri 08:35:39 AM 37.5919 -84.3575 249° West 290 334 38,000  Level Indianapolis Center
Fri 08:36:41 AM 37.5633 -84.4508 249° West 287 330 38,000  Level Indianapolis Center
Fri 08:37:42 AM 37.5331 -84.5450 248° West 290 334 38,000  Level Indianapolis Center
Fri 08:38:44 AM 37.5042 -84.6389 249° West 289 333 38,000  Level Indianapolis Center
Fri 08:39:45 AM 37.4747 -84.7339 249° West 291 335 38,000 488 Level Indianapolis Center
Fri 08:40:47 AM 37.4414 -84.8400 248° West 282 325 39,000 976 Climbing Indianapolis Center
Fri 08:41:48 AM 37.4150 -84.9264 249° West 267 307 40,000 488 Climbing Indianapolis Center
Fri 08:42:50 AM 37.3875 -85.0169 249° West 276 318 40,000  Level Indianapolis Center
Fri 08:43:51 AM 37.3575 -85.1097 248° West 284 327 40,000  Level Indianapolis Center
Fri 08:44:53 AM 37.3283 -85.1997 248° West 279 321 40,000  Level Indianapolis Center
Fri 08:45:55 AM 37.3006 -85.2864 248° West 271 312 40,000  Level Indianapolis Center
Fri 08:46:56 AM 37.2731 -85.3747 249° West 272 313 40,000  Level Indianapolis Center
Fri 08:47:58 AM 37.2414 -85.4783 249° West 273 314 40,000  Level Indianapolis Center
Fri 08:48:59 AM 37.2139 -85.5664 249° West 275 316 40,000  Level Indianapolis Center
Fri 08:50:01 AM 37.1847 -85.6561 248° West 276 318 40,000  Level Indianapolis Center
Fri 08:50:32 AM 37.1697 -85.7078 250° West 281 323 40,000  Level Memphis Center
Fri 08:51:32 AM 37.1375 -85.7956 245° Southwest 281 323 40,000  Level Memphis Center
Fri 08:52:32 AM 37.1097 -85.8856 249° West 281 323 40,000  Level Memphis Center
Fri 08:53:32 AM 37.0817 -85.9781 249° West 281 323 40,000  Level Memphis Center
Fri 08:54:32 AM 37.0494 -86.0708 247° West 281 323 40,000  Level Memphis Center
Fri 08:55:32 AM 37.0214 -86.1608 249° West 281 323 40,000  Level Memphis Center
Fri 08:56:32 AM 36.9911 -86.2558 248° West 281 323 40,000  Level Memphis Center
Fri 08:57:32 AM 36.9606 -86.3431 246° West 281 323 40,000  Level Memphis Center
Fri 08:58:32 AM 36.9303 -86.4356 248° West 281 323 40,000  Level Memphis Center
Fri 08:59:32 AM 36.9017 -86.5172 246° West 281 323 40,000  Level Memphis Center
Fri 09:00:32 AM 36.8708 -86.6044 246° West 281 323 40,000  Level Memphis Center
Fri 09:01:32 AM 36.8383 -86.6967 246° West 281 323 40,000  Level Memphis Center
Fri 09:02:32 AM 36.8075 -86.7836 246° West 281 323 40,000  Level Memphis Center
Fri 09:03:32 AM 36.7744 -86.8731 245° Southwest 281 323 40,000  Level Memphis Center
Fri 09:04:32 AM 36.7417 -86.9625 245° Southwest 281 323 40,000  Level Memphis Center
Fri 09:05:32 AM 36.7106 -87.0517 247° West 281 323 40,000  Level Memphis Center
Fri 09:06:32 AM 36.6775 -87.1411 245° Southwest 281 323 40,000  Level Memphis Center
Fri 09:07:32 AM 36.6444 -87.2303 245° Southwest 281 323 40,000  Level Memphis Center
Fri 09:08:32 AM 36.6111 -87.3194 245° Southwest 281 323 40,000  Level Memphis Center
Fri 09:09:32 AM 36.5761 -87.4192 246° West 281 323 40,000  Level Memphis Center
Fri 09:10:32 AM 36.5428 -87.5081 245° Southwest 281 323 40,000  Level Memphis Center
Fri 09:11:32 AM 36.5092 -87.5944 244° Southwest 281 323 40,000  Level Memphis Center
Fri 09:12:32 AM 36.4758 -87.6858 246° West 281 323 40,000  Level Memphis Center
Fri 09:13:32 AM 36.4422 -87.7747 245° Southwest 281 323 40,000  Level Memphis Center
Fri 09:14:32 AM 36.4086 -87.8661 245° Southwest 281 323 40,000  Level Memphis Center
Fri 09:15:32 AM 36.3750 -87.9572 245° Southwest 281 323 40,000  Level Memphis Center
Fri 09:16:32 AM 36.3433 -88.0458 246° West 281 323 40,000  Level Memphis Center
Fri 09:17:32 AM 36.3136 -88.1267 245° Southwest 281 323 40,000  Level Memphis Center
Fri 09:18:32 AM 36.2797 -88.2100 243° Southwest 281 323 40,000  Level Memphis Center
Fri 09:19:32 AM 36.2436 -88.3061 245° Southwest 281 323 40,000  Level Memphis Center
Fri 09:20:32 AM 36.2078 -88.3969 244° Southwest 291 335 40,000  Level Memphis Center
Fri 09:21:32 AM 36.1717 -88.4903 244° Southwest 302 348 40,000  Level Memphis Center
Fri 09:22:32 AM 36.1353 -88.5811 244° Southwest 302 348 40,000  Level Memphis Center
Fri 09:23:32 AM 36.0992 -88.6744 244° Southwest 302 348 40,000  Level Memphis Center
Fri 09:24:32 AM 36.0628 -88.7650 244° Southwest 302 348 40,000  Level Memphis Center
Fri 09:25:32 AM 36.0264 -88.8556 244° Southwest 302 348 40,000  Level Memphis Center
Fri 09:26:32 AM 35.9922 -88.9511 246° West 302 348 40,000  Level Memphis Center
Fri 09:27:32 AM 35.9514 -89.0519 243° Southwest 302 348 40,000  Level Memphis Center
Fri 09:28:32 AM 35.9150 -89.1472 245° Southwest 302 348 40,000  Level Memphis Center
Fri 09:29:32 AM 35.8783 -89.2400 244° Southwest 302 348 40,000  Level Memphis Center
Fri 09:30:32 AM 35.8417 -89.3300 243° Southwest 302 348 40,000  Level Memphis Center
Fri 09:31:32 AM 35.8047 -89.4253 244° Southwest 302 348 40,000  Level Memphis Center
Fri 09:32:32 AM 35.7700 -89.5178 245° Southwest 302 348 40,000  Level Memphis Center
Fri 09:33:32 AM 35.7350 -89.6053 244° Southwest 302 348 40,000  Level Memphis Center
Fri 09:34:32 AM 35.7000 -89.6922 244° Southwest 302 348 40,000  Level Memphis Center
Fri 09:35:32 AM 35.6756 -89.7667 248° West 289 333 40,000  Level Memphis Center
Fri 09:36:32 AM 35.6425 -89.8539 245° Southwest 274 315 40,000  Level Memphis Center
Fri 09:37:32 AM 35.6094 -89.9383 244° Southwest 280 322 40,000 -100 Level Memphis Center
Fri 09:38:32 AM 35.5722 -90.0278 243° Southwest 280 322 39,800 -750 Descending Memphis Center
Fri 09:39:32 AM 35.5347 -90.1222 244° Southwest 296 341 38,500 -1,350 Descending Memphis Center
Fri 09:40:32 AM 35.4953 -90.2142 242° Southwest 307 353 37,100 -1,400 Descending Memphis Center
Fri 09:41:32 AM 35.4600 -90.3086 245° Southwest 307 353 35,700 -1,450 Descending Memphis Center
Fri 09:42:32 AM 35.4183 -90.4106 243° Southwest 302 348 34,200 -1,500 Descending Memphis Center
Fri 09:43:32 AM 35.3764 -90.5097 243° Southwest 314 361 32,700 -1,500 Descending Memphis Center
Fri 09:44:32 AM 35.3367 -90.6117 244° Southwest 327 376 31,200 -1,650 Descending Memphis Center
Fri 09:45:32 AM 35.2947 -90.7133 243° Southwest 327 376 29,400 -1,850 Descending Memphis Center
Fri 09:46:32 AM 35.2547 -90.8097 243° Southwest 322 371 27,500 -2,000 Descending Memphis Center
Fri 09:47:32 AM 35.2086 -90.9136 242° Southwest 327 376 25,400 -2,250 Descending Memphis Center
Fri 09:48:32 AM 35.1725 -91.0072 245° Southwest 322 371 23,000 -2,450 Descending Memphis Center
Fri 09:49:32 AM 35.1303 -91.1111 244° Southwest 327 376 20,500 -2,500 Descending Memphis Center
Fri 09:50:32 AM 35.0878 -91.2147 243° Southwest 333 383 18,000 -2,629 Descending Memphis Center
Fri 09:51:01 AM 35.0647 -91.2603 238° Southwest 347 399 16,600 -3,100 Descending Memphis Center
Fri 09:51:32 AM 35.0475 -91.3158 249° West 338 389 14,900 -3,200 Descending Memphis Center
Fri 09:52:01 AM 35.0222 -91.3611 236° Southwest 315 362 13,400 -3,400 Descending Memphis Center
Fri 09:52:32 AM 35.0072 -91.4067 248° West 319 367 11,500 -3,164 Descending Memphis Center
Fri 09:52:56 AM 34.9903 -91.4419 240° Southwest 296 341 10,500 -2,100 Descending Memphis Center
Fri 09:53:32 AM 34.9708 -91.4925 245° Southwest 308 354 9,400 -1,636 Descending Memphis Center
Fri 09:54:02 AM 34.9517 -91.5328 240° Southwest 263 303 8,700 -1,500 Descending Memphis Center
Fri 09:54:32 AM 34.9369 -91.5731 246° West 285 328 7,900 -1,527 Descending Memphis Center
Fri 09:54:57 AM 34.9219 -91.6058 241° Southwest 259 298 7,300 -1,600 Descending Memphis Center
Fri 09:55:32 AM 34.9067 -91.6536 249° West 273 314 6,300 -1,522 Descending Memphis Center
Fri 09:56:04 AM 34.8917 -91.6989 248° West 262 302 5,600 -1,200 Descending Memphis Center
Fri 09:56:32 AM 34.8850 -91.7369 258° West 273 314 5,100 -600 Descending Memphis Center
Fri 09:57:04 AM 34.8719 -91.7822 251° West 248 285 5,000 -600 Descending Memphis Center
Fri 09:57:32 AM 34.8694 -91.8175 265° West 261 300 4,500 -1,254 Descending Memphis Center
Fri 09:58:11 AM 34.8564 -91.8706 253° West 248 285 3,600 -1,500 Descending Memphis Center
Fri 09:58:32 AM 34.8561 -91.9008 269° West 261 300 3,000 -1,180 Descending Memphis Center
Fri 09:59:12 AM 34.8469 -91.9539 258° West 247 284 2,400 -600 Descending Memphis Center
Fri 09:59:32 AM 34.8425 -91.9867 261° West 261 300 2,400 -400 Level Memphis Center
Fri 10:00:12 AM 34.8439 -92.0347 272° West 228 262 2,000 -400 Descending Memphis Center
Fri 10:00:32 AM 34.8478 -92.0500 287° West 247 284 2,000  Level Memphis Center
Fri 10:01:07 AM 34.8367 -92.0953 253° West 192 221 2,000  Level Memphis Center
Fri 10:01:32 AM 34.8283 -92.1078 231° Southwest 213 245 2,000  Level Memphis Center
Fri 10:02:07 AM 34.8006 -92.1375 221° Southwest 181 208 2,000 -100 Level Memphis Center
Fri 10:02:32 AM 34.7964 -92.1500 248° West 182 209 1,900 -689 Descending Memphis Center
Fri 10:03:08 AM 34.7731 -92.1725 218° Southwest 131 151 1,300 -742 Descending Memphis Center
Fri 10:04:09 AM 34.7497 -92.2022 226° Southwest 103 119 700 -590 Descending Memphis Center

Login

Don't have an account? Register now (free) for customized features, flight alerts, and more!